sensor_id;sensor_type;location;lat;lon;timestamp;temperature;humidity
20750;DHT22;10535;50.664;4.564;2022-08-19T00:01:27;18.40;99.90
20750;DHT22;10535;50.664;4.564;2022-08-19T00:03:55;18.40;99.90
20750;DHT22;10535;50.664;4.564;2022-08-19T00:06:21;18.30;99.90
20750;DHT22;10535;50.664;4.564;2022-08-19T00:08:47;18.30;99.90
20750;DHT22;10535;50.664;4.564;2022-08-19T00:11:12;18.30;99.90
20750;DHT22;10535;50.664;4.564;2022-08-19T00:13:38;18.20;99.90
20750;DHT22;10535;50.664;4.564;2022-08-19T00:16:05;18.30;99.90
20750;DHT22;10535;50.664;4.564;2022-08-19T00:18:34;18.20;99.90
20750;DHT22;10535;50.664;4.564;2022-08-19T00:21:00;18.20;99.90
20750;DHT22;10535;50.664;4.564;2022-08-19T00:23:26;18.10;99.90
20750;DHT22;10535;50.664;4.564;2022-08-19T00:25:53;18.20;99.90
20750;DHT22;10535;50.664;4.564;2022-08-19T00:28:19;18.30;99.90
20750;DHT22;10535;50.664;4.564;2022-08-19T00:30:46;18.40;99.90
20750;DHT22;10535;50.664;4.564;2022-08-19T00:33:13;18.40;99.90
20750;DHT22;10535;50.664;4.564;2022-08-19T00:35:39;18.30;99.90
20750;DHT22;10535;50.664;4.564;2022-08-19T00:38:05;18.50;99.90
20750;DHT22;10535;50.664;4.564;2022-08-19T00:40:34;18.50;99.90
20750;DHT22;10535;50.664;4.564;2022-08-19T00:43:00;18.40;99.90
20750;DHT22;10535;50.664;4.564;2022-08-19T00:45:28;18.50;99.90
20750;DHT22;10535;50.664;4.564;2022-08-19T00:47:56;18.30;99.90
20750;DHT22;10535;50.664;4.564;2022-08-19T00:50:23;18.30;99.90
20750;DHT22;10535;50.664;4.564;2022-08-19T00:52:50;18.20;99.90
20750;DHT22;10535;50.664;4.564;2022-08-19T00:55:19;18.10;99.90
20750;DHT22;10535;50.664;4.564;2022-08-19T00:57:56;18.10;99.90
20750;DHT22;10535;50.664;4.564;2022-08-19T01:00:24;18.10;99.90
20750;DHT22;10535;50.664;4.564;2022-08-19T01:02:52;18.10;99.90
20750;DHT22;10535;50.664;4.564;2022-08-19T01:05:22;18.10;99.90
20750;DHT22;10535;50.664;4.564;2022-08-19T01:07:49;18.10;99.90
20750;DHT22;10535;50.664;4.564;2022-08-19T01:10:19;18.20;99.90
20750;DHT22;10535;50.664;4.564;2022-08-19T01:12:46;18.20;99.90
20750;DHT22;10535;50.664;4.564;2022-08-19T01:15:16;18.20;99.90
20750;DHT22;10535;50.664;4.564;2022-08-19T01:17:43;18.20;99.90
20750;DHT22;10535;50.664;4.564;2022-08-19T01:20:12;18.20;99.90
20750;DHT22;10535;50.664;4.564;2022-08-19T01:22:44;18.00;99.90
20750;DHT22;10535;50.664;4.564;2022-08-19T01:25:13;18.00;99.90
20750;DHT22;10535;50.664;4.564;2022-08-19T01:27:41;18.00;99.90
20750;DHT22;10535;50.664;4.564;2022-08-19T01:30:10;18.00;99.90
20750;DHT22;10535;50.664;4.564;2022-08-19T01:32:36;18.00;99.90
20750;DHT22;10535;50.664;4.564;2022-08-19T01:35:03;17.90;99.90
20750;DHT22;10535;50.664;4.564;2022-08-19T01:37:29;17.80;99.90
20750;DHT22;10535;50.664;4.564;2022-08-19T01:39:56;17.70;99.90
20750;DHT22;10535;50.664;4.564;2022-08-19T01:42:21;17.70;99.90
20750;DHT22;10535;50.664;4.564;2022-08-19T01:44:47;17.80;99.90
20750;DHT22;10535;50.664;4.564;2022-08-19T01:47:14;17.80;99.90
20750;DHT22;10535;50.664;4.564;2022-08-19T01:49:40;17.80;99.90
20750;DHT22;10535;50.664;4.564;2022-08-19T01:52:06;17.70;99.90
20750;DHT22;10535;50.664;4.564;2022-08-19T01:54:32;17.60;99.90
20750;DHT22;10535;50.664;4.564;2022-08-19T01:57:06;17.60;99.90
20750;DHT22;10535;50.664;4.564;2022-08-19T01:59:34;17.50;99.90
20750;DHT22;10535;50.664;4.564;2022-08-19T02:02:02;17.60;99.90
20750;DHT22;10535;50.664;4.564;2022-08-19T02:04:28;17.60;99.90
20750;DHT22;10535;50.664;4.564;2022-08-19T02:06:54;17.50;99.90
20750;DHT22;10535;50.664;4.564;2022-08-19T02:09:19;17.50;99.90
20750;DHT22;10535;50.664;4.564;2022-08-19T02:11:45;17.50;99.90
20750;DHT22;10535;50.664;4.564;2022-08-19T02:14:10;17.50;99.90
20750;DHT22;10535;50.664;4.564;2022-08-19T02:16:36;17.40;99.90
20750;DHT22;10535;50.664;4.564;2022-08-19T02:19:03;17.40;99.90
20750;DHT22;10535;50.664;4.564;2022-08-19T02:21:30;17.30;99.90
20750;DHT22;10535;50.664;4.564;2022-08-19T02:23:56;17.30;99.90
20750;DHT22;10535;50.664;4.564;2022-08-19T02:26:22;17.30;99.90
20750;DHT22;10535;50.664;4.564;2022-08-19T02:28:48;17.30;99.90
20750;DHT22;10535;50.664;4.564;2022-08-19T02:31:17;17.20;99.90
20750;DHT22;10535;50.664;4.564;2022-08-19T02:33:43;17.20;99.90
20750;DHT22;10535;50.664;4.564;2022-08-19T02:36:11;17.20;99.90
20750;DHT22;10535;50.664;4.564;2022-08-19T02:38:38;17.20;99.90
20750;DHT22;10535;50.664;4.564;2022-08-19T02:41:12;17.10;99.90
20750;DHT22;10535;50.664;4.564;2022-08-19T02:43:38;17.10;99.90
20750;DHT22;10535;50.664;4.564;2022-08-19T02:46:24;17.10;99.90
20750;DHT22;10535;50.664;4.564;2022-08-19T02:48:55;17.10;99.90
20750;DHT22;10535;50.664;4.564;2022-08-19T02:51:35;17.10;99.90
20750;DHT22;10535;50.664;4.564;2022-08-19T02:54:01;17.10;99.90
20750;DHT22;10535;50.664;4.564;2022-08-19T02:56:27;17.10;99.90
20750;DHT22;10535;50.664;4.564;2022-08-19T02:58:56;17.20;99.90
20750;DHT22;10535;50.664;4.564;2022-08-19T03:01:27;17.20;99.90
20750;DHT22;10535;50.664;4.564;2022-08-19T03:03:53;17.20;99.90
20750;DHT22;10535;50.664;4.564;2022-08-19T03:06:19;17.20;99.90
20750;DHT22;10535;50.664;4.564;2022-08-19T03:08:46;17.30;99.90
20750;DHT22;10535;50.664;4.564;2022-08-19T03:11:21;17.20;99.90
20750;DHT22;10535;50.664;4.564;2022-08-19T03:13:47;17.20;99.90
20750;DHT22;10535;50.664;4.564;2022-08-19T03:16:16;17.10;99.90
20750;DHT22;10535;50.664;4.564;2022-08-19T03:18:42;17.10;99.90
20750;DHT22;10535;50.664;4.564;2022-08-19T03:21:08;17.20;99.90
20750;DHT22;10535;50.664;4.564;2022-08-19T03:23:34;17.20;99.90
20750;DHT22;10535;50.664;4.564;2022-08-19T03:26:04;17.20;99.90
20750;DHT22;10535;50.664;4.564;2022-08-19T03:28:30;17.20;99.90
20750;DHT22;10535;50.664;4.564;2022-08-19T03:30:59;17.20;99.90
20750;DHT22;10535;50.664;4.564;2022-08-19T03:33:25;17.10;99.90
20750;DHT22;10535;50.664;4.564;2022-08-19T03:36:09;17.10;99.90
20750;DHT22;10535;50.664;4.564;2022-08-19T03:38:38;17.00;99.90
20750;DHT22;10535;50.664;4.564;2022-08-19T03:41:10;17.00;99.90
20750;DHT22;10535;50.664;4.564;2022-08-19T03:43:38;17.00;99.90
20750;DHT22;10535;50.664;4.564;2022-08-19T03:46:07;16.90;99.90
20750;DHT22;10535;50.664;4.564;2022-08-19T03:48:33;17.00;99.90
20750;DHT22;10535;50.664;4.564;2022-08-19T03:51:00;16.90;99.90
20750;DHT22;10535;50.664;4.564;2022-08-19T03:53:27;16.90;99.90
20750;DHT22;10535;50.664;4.564;2022-08-19T03:55:53;16.80;99.90
20750;DHT22;10535;50.664;4.564;2022-08-19T03:58:20;16.90;99.90
20750;DHT22;10535;50.664;4.564;2022-08-19T04:00:46;16.80;99.90
20750;DHT22;10535;50.664;4.564;2022-08-19T04:03:12;16.80;99.90
20750;DHT22;10535;50.664;4.564;2022-08-19T04:05:38;16.80;99.90
20750;DHT22;10535;50.664;4.564;2022-08-19T04:08:04;16.80;99.90
20750;DHT22;10535;50.664;4.564;2022-08-19T04:10:37;16.70;99.90
20750;DHT22;10535;50.664;4.564;2022-08-19T04:13:04;16.70;99.90
20750;DHT22;10535;50.664;4.564;2022-08-19T04:15:31;16.60;99.90
20750;DHT22;10535;50.664;4.564;2022-08-19T04:18:04;16.60;99.90
20750;DHT22;10535;50.664;4.564;2022-08-19T04:20:31;16.50;99.90
20750;DHT22;10535;50.664;4.564;2022-08-19T04:22:56;16.50;99.90
20750;DHT22;10535;50.664;4.564;2022-08-19T04:25:22;16.50;99.90
20750;DHT22;10535;50.664;4.564;2022-08-19T04:27:48;16.50;99.90
20750;DHT22;10535;50.664;4.564;2022-08-19T04:30:13;16.50;99.90
20750;DHT22;10535;50.664;4.564;2022-08-19T04:32:40;16.60;99.90
20750;DHT22;10535;50.664;4.564;2022-08-19T04:35:09;16.60;99.90
20750;DHT22;10535;50.664;4.564;2022-08-19T04:37:34;16.60;99.90
20750;DHT22;10535;50.664;4.564;2022-08-19T04:40:00;16.70;99.90
20750;DHT22;10535;50.664;4.564;2022-08-19T04:42:44;16.80;99.90
20750;DHT22;10535;50.664;4.564;2022-08-19T04:45:13;17.00;99.90
20750;DHT22;10535;50.664;4.564;2022-08-19T04:47:41;17.10;99.90
20750;DHT22;10535;50.664;4.564;2022-08-19T04:50:08;17.00;99.90
20750;DHT22;10535;50.664;4.564;2022-08-19T04:52:37;17.00;99.90
20750;DHT22;10535;50.664;4.564;2022-08-19T04:55:09;17.00;99.90
20750;DHT22;10535;50.664;4.564;2022-08-19T04:57:35;17.20;99.90
20750;DHT22;10535;50.664;4.564;2022-08-19T05:00:09;17.50;99.90
20750;DHT22;10535;50.664;4.564;2022-08-19T05:02:35;17.50;99.90
20750;DHT22;10535;50.664;4.564;2022-08-19T05:05:01;17.40;99.90
20750;DHT22;10535;50.664;4.564;2022-08-19T05:07:27;17.40;99.90
20750;DHT22;10535;50.664;4.564;2022-08-19T05:09:52;17.60;99.90
20750;DHT22;10535;50.664;4.564;2022-08-19T05:12:18;17.50;99.90
20750;DHT22;10535;50.664;4.564;2022-08-19T05:14:45;17.40;99.90
20750;DHT22;10535;50.664;4.564;2022-08-19T05:17:13;17.40;99.90
20750;DHT22;10535;50.664;4.564;2022-08-19T05:19:38;17.50;99.90
20750;DHT22;10535;50.664;4.564;2022-08-19T05:22:22;17.50;99.90
20750;DHT22;10535;50.664;4.564;2022-08-19T05:24:58;17.70;99.90
20750;DHT22;10535;50.664;4.564;2022-08-19T05:27:24;17.80;99.90
20750;DHT22;10535;50.664;4.564;2022-08-19T05:29:50;17.90;99.90
20750;DHT22;10535;50.664;4.564;2022-08-19T05:32:15;18.10;99.90
20750;DHT22;10535;50.664;4.564;2022-08-19T05:34:41;18.20;99.90
20750;DHT22;10535;50.664;4.564;2022-08-19T05:37:07;18.10;99.90
20750;DHT22;10535;50.664;4.564;2022-08-19T05:39:35;18.10;99.90
20750;DHT22;10535;50.664;4.564;2022-08-19T05:42:06;18.00;99.90
20750;DHT22;10535;50.664;4.564;2022-08-19T05:44:35;18.00;99.90
20750;DHT22;10535;50.664;4.564;2022-08-19T05:47:03;18.00;99.90
20750;DHT22;10535;50.664;4.564;2022-08-19T05:49:30;18.10;99.90
20750;DHT22;10535;50.664;4.564;2022-08-19T05:51:57;18.10;99.90
20750;DHT22;10535;50.664;4.564;2022-08-19T05:54:25;18.00;99.90
20750;DHT22;10535;50.664;4.564;2022-08-19T05:56:51;18.10;99.90
20750;DHT22;10535;50.664;4.564;2022-08-19T05:59:18;18.10;99.90
20750;DHT22;10535;50.664;4.564;2022-08-19T06:01:47;18.30;99.90
20750;DHT22;10535;50.664;4.564;2022-08-19T06:04:16;18.40;99.90
20750;DHT22;10535;50.664;4.564;2022-08-19T06:06:49;18.70;99.90
20750;DHT22;10535;50.664;4.564;2022-08-19T06:09:17;18.80;99.90
20750;DHT22;10535;50.664;4.564;2022-08-19T06:11:46;18.90;99.90
20750;DHT22;10535;50.664;4.564;2022-08-19T06:14:15;19.20;99.90
20750;DHT22;10535;50.664;4.564;2022-08-19T06:16:42;19.20;99.90
20750;DHT22;10535;50.664;4.564;2022-08-19T06:19:11;19.30;99.90
20750;DHT22;10535;50.664;4.564;2022-08-19T06:21:39;19.60;99.90
20750;DHT22;10535;50.664;4.564;2022-08-19T06:24:09;19.70;99.90
20750;DHT22;10535;50.664;4.564;2022-08-19T06:26:37;19.70;99.90
20750;DHT22;10535;50.664;4.564;2022-08-19T06:29:07;19.80;99.90
20750;DHT22;10535;50.664;4.564;2022-08-19T06:31:34;20.00;99.90
20750;DHT22;10535;50.664;4.564;2022-08-19T06:34:01;20.30;99.90
20750;DHT22;10535;50.664;4.564;2022-08-19T06:36:34;20.50;99.90
20750;DHT22;10535;50.664;4.564;2022-08-19T06:39:05;20.90;99.90
20750;DHT22;10535;50.664;4.564;2022-08-19T06:41:38;21.00;99.90
20750;DHT22;10535;50.664;4.564;2022-08-19T06:44:04;20.80;99.90
20750;DHT22;10535;50.664;4.564;2022-08-19T06:46:30;21.00;99.90
20750;DHT22;10535;50.664;4.564;2022-08-19T06:48:57;20.90;99.90
20750;DHT22;10535;50.664;4.564;2022-08-19T06:51:23;21.00;99.90
20750;DHT22;10535;50.664;4.564;2022-08-19T06:53:51;21.40;99.90
20750;DHT22;10535;50.664;4.564;2022-08-19T06:56:20;21.70;99.90
20750;DHT22;10535;50.664;4.564;2022-08-19T06:58:51;21.80;99.90
20750;DHT22;10535;50.664;4.564;2022-08-19T07:01:19;22.10;99.90
20750;DHT22;10535;50.664;4.564;2022-08-19T07:03:46;22.30;99.90
20750;DHT22;10535;50.664;4.564;2022-08-19T07:06:15;22.50;99.90
20750;DHT22;10535;50.664;4.564;2022-08-19T07:08:46;22.60;99.90
20750;DHT22;10535;50.664;4.564;2022-08-19T07:11:14;22.40;99.90
20750;DHT22;10535;50.664;4.564;2022-08-19T07:13:43;22.50;99.90
20750;DHT22;10535;50.664;4.564;2022-08-19T07:16:17;22.50;99.90
20750;DHT22;10535;50.664;4.564;2022-08-19T07:18:48;22.90;99.90
20750;DHT22;10535;50.664;4.564;2022-08-19T07:21:20;22.70;99.90
20750;DHT22;10535;50.664;4.564;2022-08-19T07:23:48;22.70;99.90
20750;DHT22;10535;50.664;4.564;2022-08-19T07:26:15;22.40;99.90
20750;DHT22;10535;50.664;4.564;2022-08-19T07:28:41;22.40;99.90
20750;DHT22;10535;50.664;4.564;2022-08-19T07:31:11;22.40;99.90
20750;DHT22;10535;50.664;4.564;2022-08-19T07:33:39;22.50;99.90
20750;DHT22;10535;50.664;4.564;2022-08-19T07:36:10;22.50;99.90
20750;DHT22;10535;50.664;4.564;2022-08-19T07:38:41;22.90;99.90
20750;DHT22;10535;50.664;4.564;2022-08-19T07:41:10;22.80;99.90
20750;DHT22;10535;50.664;4.564;2022-08-19T07:43:36;22.40;99.90
20750;DHT22;10535;50.664;4.564;2022-08-19T07:46:01;22.10;99.90
20750;DHT22;10535;50.664;4.564;2022-08-19T07:48:27;22.00;99.90
20750;DHT22;10535;50.664;4.564;2022-08-19T07:50:57;22.10;99.90
20750;DHT22;10535;50.664;4.564;2022-08-19T07:53:24;22.50;99.90
20750;DHT22;10535;50.664;4.564;2022-08-19T07:55:50;22.50;99.90
20750;DHT22;10535;50.664;4.564;2022-08-19T07:58:19;22.60;99.90
20750;DHT22;10535;50.664;4.564;2022-08-19T08:00:47;22.00;99.90
20750;DHT22;10535;50.664;4.564;2022-08-19T08:03:14;21.60;99.90
20750;DHT22;10535;50.664;4.564;2022-08-19T08:05:41;21.30;99.90
20750;DHT22;10535;50.664;4.564;2022-08-19T08:08:25;21.60;99.90
20750;DHT22;10535;50.664;4.564;2022-08-19T08:11:10;22.00;99.90
20750;DHT22;10535;50.664;4.564;2022-08-19T08:13:36;22.70;99.90
20750;DHT22;10535;50.664;4.564;2022-08-19T08:16:02;23.10;99.90
20750;DHT22;10535;50.664;4.564;2022-08-19T08:18:28;23.40;99.90
20750;DHT22;10535;50.664;4.564;2022-08-19T08:20:55;23.90;99.90
20750;DHT22;10535;50.664;4.564;2022-08-19T08:23:20;24.10;99.90
20750;DHT22;10535;50.664;4.564;2022-08-19T08:25:56;23.90;99.90
20750;DHT22;10535;50.664;4.564;2022-08-19T08:28:32;23.70;99.90
20750;DHT22;10535;50.664;4.564;2022-08-19T08:30:58;23.50;99.90
20750;DHT22;10535;50.664;4.564;2022-08-19T08:33:25;23.80;99.90
20750;DHT22;10535;50.664;4.564;2022-08-19T08:35:51;24.10;99.90
20750;DHT22;10535;50.664;4.564;2022-08-19T08:38:18;24.10;99.90
20750;DHT22;10535;50.664;4.564;2022-08-19T08:40:50;24.10;99.90
20750;DHT22;10535;50.664;4.564;2022-08-19T08:43:28;24.20;99.90
20750;DHT22;10535;50.664;4.564;2022-08-19T08:46:19;24.10;99.90
20750;DHT22;10535;50.664;4.564;2022-08-19T08:51:18;23.80;99.90
20750;DHT22;10535;50.664;4.564;2022-08-19T08:53:47;24.30;99.90
20750;DHT22;10535;50.664;4.564;2022-08-19T08:56:15;24.20;99.90
20750;DHT22;10535;50.664;4.564;2022-08-19T09:01:19;23.90;99.90
20750;DHT22;10535;50.664;4.564;2022-08-19T09:03:45;23.90;99.90
20750;DHT22;10535;50.664;4.564;2022-08-19T09:06:14;23.80;99.90
20750;DHT22;10535;50.664;4.564;2022-08-19T09:16:57;24.10;99.90
20750;DHT22;10535;50.664;4.564;2022-08-19T09:19:23;24.20;99.90
20750;DHT22;10535;50.664;4.564;2022-08-19T09:21:48;23.90;99.90
20750;DHT22;10535;50.664;4.564;2022-08-19T09:24:15;24.20;99.90
20750;DHT22;10535;50.664;4.564;2022-08-19T09:26:41;24.30;99.90
20750;DHT22;10535;50.664;4.564;2022-08-19T09:29:09;24.40;99.90
20750;DHT22;10535;50.664;4.564;2022-08-19T09:31:35;24.70;99.90
20750;DHT22;10535;50.664;4.564;2022-08-19T09:34:01;25.00;99.90
20750;DHT22;10535;50.664;4.564;2022-08-19T09:36:29;25.00;99.90
20750;DHT22;10535;50.664;4.564;2022-08-19T09:38:58;25.00;99.90
20750;DHT22;10535;50.664;4.564;2022-08-19T09:41:24;25.10;99.90
20750;DHT22;10535;50.664;4.564;2022-08-19T09:43:52;24.90;99.90
20750;DHT22;10535;50.664;4.564;2022-08-19T09:46:23;24.70;99.90
20750;DHT22;10535;50.664;4.564;2022-08-19T09:48:49;24.30;99.90
20750;DHT22;10535;50.664;4.564;2022-08-19T09:51:19;23.90;99.90
20750;DHT22;10535;50.664;4.564;2022-08-19T09:53:46;24.20;99.90
20750;DHT22;10535;50.664;4.564;2022-08-19T09:56:13;24.20;99.90
20750;DHT22;10535;50.664;4.564;2022-08-19T09:58:39;24.20;99.90
20750;DHT22;10535;50.664;4.564;2022-08-19T10:01:06;23.80;99.90
20750;DHT22;10535;50.664;4.564;2022-08-19T10:03:33;24.10;99.90
20750;DHT22;10535;50.664;4.564;2022-08-19T10:06:01;24.40;99.90
20750;DHT22;10535;50.664;4.564;2022-08-19T10:08:31;24.40;99.90
20750;DHT22;10535;50.664;4.564;2022-08-19T10:10:59;24.40;99.90
20750;DHT22;10535;50.664;4.564;2022-08-19T10:13:26;24.20;99.90
20750;DHT22;10535;50.664;4.564;2022-08-19T10:15:54;24.30;99.90
20750;DHT22;10535;50.664;4.564;2022-08-19T10:18:22;24.30;99.90
20750;DHT22;10535;50.664;4.564;2022-08-19T10:20:50;24.20;99.90
20750;DHT22;10535;50.664;4.564;2022-08-19T10:23:17;23.90;99.90
20750;DHT22;10535;50.664;4.564;2022-08-19T10:25:43;24.20;99.90
20750;DHT22;10535;50.664;4.564;2022-08-19T10:28:09;23.90;99.90
20750;DHT22;10535;50.664;4.564;2022-08-19T10:30:40;24.10;99.90
20750;DHT22;10535;50.664;4.564;2022-08-19T10:33:07;24.50;99.90
20750;DHT22;10535;50.664;4.564;2022-08-19T10:35:32;24.80;99.90
20750;DHT22;10535;50.664;4.564;2022-08-19T10:37:58;25.30;99.90
20750;DHT22;10535;50.664;4.564;2022-08-19T10:40:26;25.30;99.90
20750;DHT22;10535;50.664;4.564;2022-08-19T10:42:53;25.40;99.90
20750;DHT22;10535;50.664;4.564;2022-08-19T10:45:19;25.50;99.90
20750;DHT22;10535;50.664;4.564;2022-08-19T10:47:47;25.50;99.90
20750;DHT22;10535;50.664;4.564;2022-08-19T10:50:13;25.30;99.90
20750;DHT22;10535;50.664;4.564;2022-08-19T10:52:57;25.20;99.90
20750;DHT22;10535;50.664;4.564;2022-08-19T10:55:24;25.20;99.90
20750;DHT22;10535;50.664;4.564;2022-08-19T10:58:13;25.20;99.90
20750;DHT22;10535;50.664;4.564;2022-08-19T11:00:39;25.00;99.90
20750;DHT22;10535;50.664;4.564;2022-08-19T11:03:15;24.80;99.90
20750;DHT22;10535;50.664;4.564;2022-08-19T11:05:41;24.50;99.90
20750;DHT22;10535;50.664;4.564;2022-08-19T11:08:08;24.70;99.90
20750;DHT22;10535;50.664;4.564;2022-08-19T11:10:37;24.90;99.90
20750;DHT22;10535;50.664;4.564;2022-08-19T11:13:06;24.90;99.90
20750;DHT22;10535;50.664;4.564;2022-08-19T11:15:31;24.70;99.90
20750;DHT22;10535;50.664;4.564;2022-08-19T11:17:57;24.30;99.90
20750;DHT22;10535;50.664;4.564;2022-08-19T11:20:23;24.30;99.90
20750;DHT22;10535;50.664;4.564;2022-08-19T11:22:52;24.70;99.90
20750;DHT22;10535;50.664;4.564;2022-08-19T11:25:19;25.40;99.90
20750;DHT22;10535;50.664;4.564;2022-08-19T11:27:45;25.80;99.90
20750;DHT22;10535;50.664;4.564;2022-08-19T11:30:12;25.70;99.90
20750;DHT22;10535;50.664;4.564;2022-08-19T11:32:38;25.10;99.90
20750;DHT22;10535;50.664;4.564;2022-08-19T11:35:05;24.70;99.90
20750;DHT22;10535;50.664;4.564;2022-08-19T11:37:30;24.40;99.90
20750;DHT22;10535;50.664;4.564;2022-08-19T11:39:57;24.30;99.90
20750;DHT22;10535;50.664;4.564;2022-08-19T11:42:23;24.50;99.90
20750;DHT22;10535;50.664;4.564;2022-08-19T11:45:07;24.50;99.90
20750;DHT22;10535;50.664;4.564;2022-08-19T11:47:33;24.90;99.90
20750;DHT22;10535;50.664;4.564;2022-08-19T11:49:58;25.40;99.90
20750;DHT22;10535;50.664;4.564;2022-08-19T11:52:24;25.40;99.90
20750;DHT22;10535;50.664;4.564;2022-08-19T11:54:51;25.70;99.90
20750;DHT22;10535;50.664;4.564;2022-08-19T11:57:17;26.00;99.90
20750;DHT22;10535;50.664;4.564;2022-08-19T11:59:49;26.10;99.90
20750;DHT22;10535;50.664;4.564;2022-08-19T12:02:15;25.60;99.90
20750;DHT22;10535;50.664;4.564;2022-08-19T12:04:41;25.60;99.90
20750;DHT22;10535;50.664;4.564;2022-08-19T12:07:06;25.50;99.90
20750;DHT22;10535;50.664;4.564;2022-08-19T12:09:32;26.00;99.90
20750;DHT22;10535;50.664;4.564;2022-08-19T12:12:00;25.90;99.90
20750;DHT22;10535;50.664;4.564;2022-08-19T12:14:27;25.80;99.90
20750;DHT22;10535;50.664;4.564;2022-08-19T12:16:55;25.80;99.90
20750;DHT22;10535;50.664;4.564;2022-08-19T12:19:21;26.10;99.90
20750;DHT22;10535;50.664;4.564;2022-08-19T12:21:47;26.10;99.90
20750;DHT22;10535;50.664;4.564;2022-08-19T12:24:13;26.60;99.90
20750;DHT22;10535;50.664;4.564;2022-08-19T12:26:38;26.90;99.90
20750;DHT22;10535;50.664;4.564;2022-08-19T12:29:06;26.90;99.90
20750;DHT22;10535;50.664;4.564;2022-08-19T12:31:39;26.90;99.90
20750;DHT22;10535;50.664;4.564;2022-08-19T12:34:08;26.70;99.90
20750;DHT22;10535;50.664;4.564;2022-08-19T12:36:33;26.60;99.90
20750;DHT22;10535;50.664;4.564;2022-08-19T12:38:59;26.50;99.90
20750;DHT22;10535;50.664;4.564;2022-08-19T12:41:27;26.60;99.90
20750;DHT22;10535;50.664;4.564;2022-08-19T12:43:53;26.60;99.90
20750;DHT22;10535;50.664;4.564;2022-08-19T12:46:19;27.10;99.90
20750;DHT22;10535;50.664;4.564;2022-08-19T12:48:46;27.40;99.90
20750;DHT22;10535;50.664;4.564;2022-08-19T12:51:16;27.60;99.90
20750;DHT22;10535;50.664;4.564;2022-08-19T12:53:42;28.00;99.90
20750;DHT22;10535;50.664;4.564;2022-08-19T12:56:09;27.80;99.90
20750;DHT22;10535;50.664;4.564;2022-08-19T12:58:34;27.30;99.90
20750;DHT22;10535;50.664;4.564;2022-08-19T13:01:12;26.90;99.90
20750;DHT22;10535;50.664;4.564;2022-08-19T13:03:41;26.90;99.90
20750;DHT22;10535;50.664;4.564;2022-08-19T13:06:17;27.00;99.90
20750;DHT22;10535;50.664;4.564;2022-08-19T13:08:43;27.20;99.90
20750;DHT22;10535;50.664;4.564;2022-08-19T13:11:14;27.20;99.90
20750;DHT22;10535;50.664;4.564;2022-08-19T13:13:44;27.50;99.90
20750;DHT22;10535;50.664;4.564;2022-08-19T13:16:14;27.60;99.90
20750;DHT22;10535;50.664;4.564;2022-08-19T13:18:41;27.70;99.90
20750;DHT22;10535;50.664;4.564;2022-08-19T13:21:09;27.70;99.90
20750;DHT22;10535;50.664;4.564;2022-08-19T13:23:36;27.90;99.90
20750;DHT22;10535;50.664;4.564;2022-08-19T13:26:05;28.10;99.90
20750;DHT22;10535;50.664;4.564;2022-08-19T13:28:31;28.00;99.90
20750;DHT22;10535;50.664;4.564;2022-08-19T13:31:17;28.00;99.90
20750;DHT22;10535;50.664;4.564;2022-08-19T13:34:02;27.90;99.90
20750;DHT22;10535;50.664;4.564;2022-08-19T13:36:28;28.30;99.90
20750;DHT22;10535;50.664;4.564;2022-08-19T13:38:54;28.00;99.90
20750;DHT22;10535;50.664;4.564;2022-08-19T13:41:26;27.60;99.90
20750;DHT22;10535;50.664;4.564;2022-08-19T13:43:54;27.70;99.90
20750;DHT22;10535;50.664;4.564;2022-08-19T13:46:20;27.80;99.90
20750;DHT22;10535;50.664;4.564;2022-08-19T13:49:17;27.70;99.90
20750;DHT22;10535;50.664;4.564;2022-08-19T13:51:53;28.10;99.90
20750;DHT22;10535;50.664;4.564;2022-08-19T13:54:21;28.10;99.90
20750;DHT22;10535;50.664;4.564;2022-08-19T13:56:50;28.10;99.90
20750;DHT22;10535;50.664;4.564;2022-08-19T13:59:19;28.00;99.90
20750;DHT22;10535;50.664;4.564;2022-08-19T14:02:02;27.90;99.90
20750;DHT22;10535;50.664;4.564;2022-08-19T14:04:29;28.30;99.90
20750;DHT22;10535;50.664;4.564;2022-08-19T14:06:55;28.30;99.90
20750;DHT22;10535;50.664;4.564;2022-08-19T14:09:21;28.70;99.90
20750;DHT22;10535;50.664;4.564;2022-08-19T14:11:46;28.90;99.90
20750;DHT22;10535;50.664;4.564;2022-08-19T14:14:12;29.00;99.90
20750;DHT22;10535;50.664;4.564;2022-08-19T14:16:40;28.20;99.90
20750;DHT22;10535;50.664;4.564;2022-08-19T14:19:17;28.00;99.90
20750;DHT22;10535;50.664;4.564;2022-08-19T14:21:42;27.80;99.90
20750;DHT22;10535;50.664;4.564;2022-08-19T14:24:11;27.50;99.90
20750;DHT22;10535;50.664;4.564;2022-08-19T14:26:36;27.20;99.90
20750;DHT22;10535;50.664;4.564;2022-08-19T14:29:02;26.80;99.90
20750;DHT22;10535;50.664;4.564;2022-08-19T14:31:41;26.20;99.90
20750;DHT22;10535;50.664;4.564;2022-08-19T14:36:46;25.40;99.90
20750;DHT22;10535;50.664;4.564;2022-08-19T14:39:12;25.10;99.90
20750;DHT22;10535;50.664;4.564;2022-08-19T14:41:49;24.50;99.90
20750;DHT22;10535;50.664;4.564;2022-08-19T14:44:38;24.30;99.90
20750;DHT22;10535;50.664;4.564;2022-08-19T14:47:07;24.00;99.90
20750;DHT22;10535;50.664;4.564;2022-08-19T14:49:35;23.80;99.90
20750;DHT22;10535;50.664;4.564;2022-08-19T14:52:01;23.30;99.90
20750;DHT22;10535;50.664;4.564;2022-08-19T14:54:28;23.20;99.90
20750;DHT22;10535;50.664;4.564;2022-08-19T14:57:17;22.80;99.90
20750;DHT22;10535;50.664;4.564;2022-08-19T14:59:49;23.00;99.90
20750;DHT22;10535;50.664;4.564;2022-08-19T15:03:27;23.30;99.90
20750;DHT22;10535;50.664;4.564;2022-08-19T15:05:54;23.60;99.90
20750;DHT22;10535;50.664;4.564;2022-08-19T15:08:21;23.90;99.90
20750;DHT22;10535;50.664;4.564;2022-08-19T15:10:47;24.30;99.90
20750;DHT22;10535;50.664;4.564;2022-08-19T15:13:14;24.50;99.90
20750;DHT22;10535;50.664;4.564;2022-08-19T15:15:41;24.90;99.90
20750;DHT22;10535;50.664;4.564;2022-08-19T15:18:06;25.10;99.90
20750;DHT22;10535;50.664;4.564;2022-08-19T15:20:32;25.30;99.90
20750;DHT22;10535;50.664;4.564;2022-08-19T15:22:58;25.40;99.90
20750;DHT22;10535;50.664;4.564;2022-08-19T15:25:25;25.20;99.90
20750;DHT22;10535;50.664;4.564;2022-08-19T15:27:51;25.10;99.90
20750;DHT22;10535;50.664;4.564;2022-08-19T15:30:21;25.40;99.90
20750;DHT22;10535;50.664;4.564;2022-08-19T15:32:47;25.30;99.90
20750;DHT22;10535;50.664;4.564;2022-08-19T15:35:13;25.10;99.90
20750;DHT22;10535;50.664;4.564;2022-08-19T15:37:39;25.10;99.90
20750;DHT22;10535;50.664;4.564;2022-08-19T15:40:05;25.10;99.90
20750;DHT22;10535;50.664;4.564;2022-08-19T15:42:37;25.00;99.90
20750;DHT22;10535;50.664;4.564;2022-08-19T15:45:06;25.00;99.90
20750;DHT22;10535;50.664;4.564;2022-08-19T15:47:32;25.00;99.90
20750;DHT22;10535;50.664;4.564;2022-08-19T15:49:58;25.00;99.90
20750;DHT22;10535;50.664;4.564;2022-08-19T15:52:24;24.90;99.90
20750;DHT22;10535;50.664;4.564;2022-08-19T15:54:51;24.80;99.90